createdAt,value
2019-03-01T00:03:49.806Z,19.97
2019-03-01T00:09:17.215Z,19.33
2019-03-01T00:14:38.408Z,20.43
2019-03-01T00:19:49.810Z,20.53
2019-03-01T00:25:13.820Z,20.13
2019-03-01T00:30:30.840Z,19.17
2019-03-01T00:36:10.149Z,21.80
2019-03-01T00:41:16.574Z,16.73
2019-03-01T00:46:18.340Z,18.10
2019-03-01T00:51:20.023Z,20.93
2019-03-01T00:56:21.794Z,19.00
2019-03-01T01:01:23.503Z,22.23
2019-03-01T01:06:25.234Z,19.63
2019-03-01T01:11:27.018Z,21.67
2019-03-01T01:16:28.789Z,21.13
2019-03-01T01:21:30.486Z,21.87
2019-03-01T01:26:32.245Z,22.93
2019-03-01T01:31:33.932Z,24.17
2019-03-01T01:36:35.704Z,22.90
2019-03-01T01:41:37.418Z,23.90
2019-03-01T01:46:39.144Z,24.33
2019-03-01T01:51:40.918Z,21.33
2019-03-01T01:56:42.698Z,23.83
2019-03-01T02:01:44.378Z,24.73
2019-03-01T02:06:46.150Z,22.97
2019-03-01T02:11:47.917Z,26.00
2019-03-01T02:16:49.719Z,24.57
2019-03-01T02:21:51.480Z,23.13
2019-03-01T02:27:12.666Z,21.77
2019-03-01T02:32:14.381Z,19.53
2019-03-01T02:37:16.175Z,24.73
2019-03-01T02:42:17.945Z,25.60
2019-03-01T02:47:19.613Z,25.47
2019-03-01T02:52:21.390Z,25.17
2019-03-01T02:57:23.166Z,25.57
2019-03-01T03:02:24.954Z,25.83
2019-03-01T03:07:35.092Z,24.50
2019-03-01T03:12:36.786Z,25.20
2019-03-01T03:17:38.501Z,24.93
2019-03-01T03:22:40.238Z,26.40
2019-03-01T03:27:42.020Z,28.07
2019-03-01T03:32:43.795Z,26.97
2019-03-01T03:37:45.576Z,27.73
2019-03-01T03:42:47.352Z,24.17
2019-03-01T03:47:49.043Z,27.43
2019-03-01T03:52:50.812Z,26.70
2019-03-01T03:57:52.584Z,19.77
2019-03-01T04:02:54.370Z,26.37
2019-03-01T04:07:56.147Z,24.33
2019-03-01T04:12:57.922Z,24.00
2019-03-01T04:17:59.686Z,25.73
2019-03-01T04:23:01.465Z,22.17
2019-03-01T04:28:03.234Z,23.43
2019-03-01T04:33:05.013Z,26.33
2019-03-01T04:38:06.804Z,26.67
2019-03-01T04:43:08.561Z,24.37
2019-03-01T04:48:10.253Z,22.60
2019-03-01T04:53:12.026Z,21.17
2019-03-01T04:58:13.806Z,21.43
2019-03-01T05:03:15.574Z,23.30
2019-03-01T05:08:17.361Z,23.30
2019-03-01T05:13:19.122Z,23.67
2019-03-01T05:18:20.941Z,25.93
2019-03-01T05:23:22.670Z,23.63
2019-03-01T05:28:24.463Z,21.43
2019-03-01T05:33:26.241Z,25.33
2019-03-01T05:38:28.004Z,25.23
2019-03-01T05:43:29.689Z,25.73
2019-03-01T05:48:31.464Z,26.40
2019-03-01T05:53:33.146Z,24.57
2019-03-01T05:58:36.462Z,21.93
2019-03-01T06:03:57.713Z,24.17
2019-03-01T06:09:19.940Z,24.03
2019-03-01T06:14:50.258Z,23.27
2019-03-01T06:20:11.335Z,25.33
2019-03-01T06:25:25.414Z,23.33
2019-03-01T06:30:33.934Z,25.30
2019-03-01T06:35:51.238Z,21.47
2019-03-01T06:41:30.294Z,22.57
2019-03-01T06:47:00.202Z,22.33
2019-03-01T06:52:01.973Z,23.67
2019-03-01T06:57:03.681Z,19.80
2019-03-01T07:02:06.742Z,22.47
2019-03-01T07:07:08.422Z,22.27
2019-03-01T07:12:10.136Z,18.97
2019-03-01T07:17:11.914Z,20.50
2019-03-01T07:22:13.630Z,19.63
2019-03-01T07:27:15.371Z,19.17
2019-03-01T07:32:17.141Z,18.27
2019-03-01T07:37:18.935Z,18.23
2019-03-01T07:42:20.694Z,19.33
2019-03-01T07:47:22.483Z,17.93
2019-03-01T07:52:24.257Z,15.30
2019-03-01T07:57:26.026Z,19.30
2019-03-01T08:02:27.804Z,18.43
2019-03-01T08:07:29.490Z,19.40
2019-03-01T08:12:31.263Z,18.20
2019-03-01T08:17:34.253Z,18.70
2019-03-01T08:22:47.535Z,18.90
2019-03-01T08:27:42.042Z,18.03
2019-03-01T08:32:43.074Z,15.93
2019-03-01T08:37:44.846Z,15.97
2019-03-01T08:42:46.631Z,14.20
2019-03-01T08:47:48.906Z,13.63
2019-03-01T08:52:51.010Z,14.57
2019-03-01T08:57:52.775Z,12.50
2019-03-01T09:02:55.431Z,11.23
2019-03-01T09:07:57.154Z,12.53
2019-03-01T09:12:58.943Z,12.43
2019-03-01T09:18:00.636Z,10.80
2019-03-01T09:23:04.974Z,10.13
2019-03-01T09:28:05.840Z,9.30
2019-03-01T09:33:07.569Z,12.00
2019-03-01T09:38:11.273Z,10.30
2019-03-01T09:43:12.752Z,11.13
2019-03-01T09:48:14.650Z,10.13
2019-03-01T09:53:16.410Z,9.17
2019-03-01T09:58:18.098Z,8.53
2019-03-01T10:03:19.870Z,8.33
2019-03-01T10:08:21.554Z,5.97
2019-03-01T10:13:23.326Z,6.43
2019-03-01T10:18:25.010Z,8.73
2019-03-01T10:23:26.783Z,7.60
2019-03-01T10:28:28.558Z,10.05
2019-03-01T10:33:30.318Z,9.10
2019-03-01T10:38:32.017Z,5.47
2019-03-01T10:43:33.786Z,6.20
2019-03-01T10:48:35.546Z,6.80
2019-03-01T10:53:37.271Z,5.80
2019-03-01T10:58:39.000Z,8.37
2019-03-01T11:03:40.770Z,9.53
2019-03-01T11:08:42.557Z,7.97
2019-03-01T11:13:44.330Z,7.37
2019-03-01T11:18:46.122Z,4.77
2019-03-01T11:23:47.893Z,7.40
2019-03-01T11:28:49.663Z,7.47
2019-03-01T11:33:51.382Z,7.30
2019-03-01T11:38:53.066Z,7.27
2019-03-01T11:43:54.781Z,7.20
2019-03-01T11:48:56.557Z,7.53
2019-03-01T11:53:58.241Z,6.40
2019-03-01T11:59:00.023Z,7.67
2019-03-01T12:04:01.784Z,6.93
2019-03-01T12:09:04.515Z,7.53
2019-03-01T12:14:06.204Z,6.27
2019-03-01T12:19:07.945Z,8.83
2019-03-01T12:24:09.717Z,8.23
2019-03-01T12:29:11.501Z,7.73
2019-03-01T12:34:13.270Z,7.10
2019-03-01T12:39:15.046Z,8.30
2019-03-01T12:44:16.823Z,6.63
2019-03-01T12:49:18.598Z,7.43
2019-03-01T12:54:20.375Z,7.17
2019-03-01T12:59:22.174Z,6.10
2019-03-01T13:04:23.859Z,8.00
2019-03-01T13:09:26.500Z,6.80
2019-03-01T13:14:28.299Z,6.77
2019-03-01T13:19:30.086Z,6.03
2019-03-01T13:24:31.870Z,8.13
2019-03-01T13:29:33.583Z,7.73
2019-03-01T13:34:35.288Z,7.20
2019-03-01T13:39:36.986Z,6.97
2019-03-01T13:44:39.866Z,7.13
2019-03-01T13:49:42.242Z,7.93
2019-03-01T13:54:45.416Z,6.60
2019-03-01T13:59:47.394Z,6.97
2019-03-01T14:04:49.082Z,7.73
2019-03-01T14:09:50.826Z,7.13
2019-03-01T14:14:52.528Z,7.70
2019-03-01T14:19:54.206Z,3.93
2019-03-01T14:24:55.878Z,2.80
2019-03-01T14:29:57.575Z,2.70
2019-03-01T14:34:59.272Z,2.00
2019-03-01T14:40:00.954Z,1.80
2019-03-01T14:45:02.962Z,1.90
2019-03-01T14:50:05.544Z,2.53
2019-03-01T14:55:08.252Z,1.90
2019-03-01T15:00:21.398Z,2.00
2019-03-01T15:05:23.078Z,1.43
2019-03-01T15:10:24.768Z,1.53
2019-03-01T15:15:29.506Z,1.73
2019-03-01T15:20:30.420Z,1.20
2019-03-01T15:25:32.105Z,1.50
2019-03-01T15:30:33.814Z,1.63
2019-03-01T15:35:36.299Z,1.80
2019-03-01T15:40:39.016Z,1.53
2019-03-01T15:45:40.703Z,2.07
2019-03-01T15:50:42.383Z,1.30
2019-03-01T15:55:44.056Z,2.07
2019-03-01T16:00:45.746Z,1.10
2019-03-01T16:05:47.433Z,1.60
2019-03-01T16:10:49.125Z,1.43
2019-03-01T16:15:50.897Z,1.70
2019-03-01T16:20:52.601Z,1.47
2019-03-01T16:25:56.383Z,1.40
2019-03-01T16:30:58.017Z,1.67
2019-03-01T16:36:01.043Z,1.90
2019-03-01T16:41:07.501Z,1.57
2019-03-01T16:46:06.334Z,1.80
2019-03-01T16:51:10.087Z,2.10
2019-03-01T16:56:11.521Z,1.80
2019-03-01T17:01:13.194Z,2.13
2019-03-01T17:06:14.873Z,1.40
2019-03-01T17:11:16.578Z,2.47
2019-03-01T17:16:20.486Z,1.37
2019-03-01T17:21:21.761Z,2.30
2019-03-01T17:26:26.240Z,2.57
2019-03-01T17:31:27.885Z,1.73
2019-03-01T17:36:29.681Z,1.80
2019-03-01T17:41:31.441Z,2.00
2019-03-01T17:46:33.833Z,2.00
2019-03-01T17:51:35.593Z,2.30
2019-03-01T17:56:37.277Z,1.70
2019-03-01T18:01:40.220Z,1.50
2019-03-01T18:06:42.078Z,1.37
2019-03-01T18:11:44.563Z,1.60
2019-03-01T18:16:47.146Z,1.80
2019-03-01T18:21:50.035Z,1.40
2019-03-01T18:26:52.545Z,1.80
2019-03-01T18:31:54.246Z,1.70
2019-03-01T18:36:55.995Z,2.03
2019-03-01T18:41:59.293Z,1.70
2019-03-01T18:47:02.306Z,1.70
2019-03-01T18:52:04.031Z,1.60
2019-03-01T18:57:05.718Z,1.80
2019-03-01T19:02:07.795Z,1.77
2019-03-01T19:07:09.636Z,2.23
2019-03-01T19:12:12.553Z,1.17
2019-03-01T19:17:14.821Z,1.43
2019-03-01T19:22:16.501Z,1.17
2019-03-01T19:27:18.286Z,1.00
2019-03-01T19:32:19.984Z,1.27
2019-03-01T19:37:21.718Z,1.40
2019-03-01T19:42:23.393Z,1.30
2019-03-01T19:47:26.495Z,1.40
2019-03-01T19:52:28.690Z,0.80
2019-03-01T19:57:30.378Z,1.07
2019-03-01T20:02:32.142Z,1.23
2019-03-01T20:07:33.842Z,1.40
2019-03-01T20:12:36.832Z,1.67
2019-03-01T20:17:44.424Z,2.20
2019-03-01T20:22:42.624Z,1.60
2019-03-01T20:27:44.408Z,1.73
2019-03-01T20:32:47.537Z,1.70
2019-03-01T20:37:49.727Z,0.97
2019-03-01T20:42:51.396Z,2.37
2019-03-01T20:47:53.540Z,2.20
2019-03-01T20:52:56.034Z,1.13
2019-03-01T20:57:59.767Z,1.53
2019-03-01T21:03:01.238Z,1.30
2019-03-01T21:08:03.024Z,1.80
2019-03-01T21:13:04.837Z,1.60
2019-03-01T21:18:06.567Z,1.43
2019-03-01T21:23:08.349Z,0.83
2019-03-01T21:28:10.108Z,1.33
2019-03-01T21:33:11.901Z,1.13
2019-03-01T21:38:13.872Z,1.07
2019-03-01T21:43:16.592Z,1.60
2019-03-01T21:48:18.690Z,1.10
2019-03-01T21:53:20.464Z,1.13
2019-03-01T21:58:22.146Z,1.10
2019-03-01T22:03:24.826Z,1.20
2019-03-01T22:08:27.381Z,1.30
2019-03-01T22:13:29.077Z,1.73
2019-03-01T22:18:30.762Z,1.63
2019-03-01T22:23:32.537Z,1.87
2019-03-01T22:28:36.239Z,2.10
2019-03-01T22:33:37.735Z,2.17
2019-03-01T22:38:41.462Z,1.77
2019-03-01T22:43:42.978Z,2.00
2019-03-01T22:48:49.008Z,1.77
2019-03-01T22:53:48.672Z,2.50
2019-03-01T22:58:50.507Z,2.33
2019-03-01T23:03:54.929Z,2.30
2019-03-01T23:08:57.770Z,1.63
2019-03-01T23:13:59.517Z,1.80
2019-03-01T23:19:12.562Z,1.80
2019-03-01T23:24:15.221Z,2.10
2019-03-01T23:29:18.787Z,2.33
2019-03-01T23:34:20.465Z,1.80
2019-03-01T23:39:24.623Z,2.33
2019-03-01T23:44:25.663Z,2.50
2019-03-01T23:49:27.355Z,2.60
2019-03-01T23:54:32.044Z,2.93
2019-03-01T23:59:33.738Z,2.50
